sensor_id;sensor_type;location;lat;lon;timestamp;temperature;humidity
33825;DHT22;20127;48.962;8.342;2023-04-05T00:01:12;2.30;81.00
33825;DHT22;20127;48.962;8.342;2023-04-05T00:04:14;2.30;81.60
33825;DHT22;20127;48.962;8.342;2023-04-05T00:07:20;2.20;82.00
33825;DHT22;20127;48.962;8.342;2023-04-05T00:10:23;2.10;82.50
33825;DHT22;20127;48.962;8.342;2023-04-05T00:13:24;2.10;82.80
33825;DHT22;20127;48.962;8.342;2023-04-05T00:16:27;2.00;82.90
33825;DHT22;20127;48.962;8.342;2023-04-05T00:19:29;2.00;83.40
33825;DHT22;20127;48.962;8.342;2023-04-05T00:22:34;1.90;83.70
33825;DHT22;20127;48.962;8.342;2023-04-05T00:25:37;1.90;84.20
33825;DHT22;20127;48.962;8.342;2023-04-05T00:28:39;1.90;84.60
33825;DHT22;20127;48.962;8.342;2023-04-05T00:31:41;2.00;84.70
33825;DHT22;20127;48.962;8.342;2023-04-05T00:34:42;2.10;84.70
33825;DHT22;20127;48.962;8.342;2023-04-05T00:37:44;2.20;84.50
33825;DHT22;20127;48.962;8.342;2023-04-05T00:40:47;2.20;84.30
33825;DHT22;20127;48.962;8.342;2023-04-05T00:43:49;2.30;84.30
33825;DHT22;20127;48.962;8.342;2023-04-05T00:46:51;2.30;84.30
33825;DHT22;20127;48.962;8.342;2023-04-05T00:49:53;2.30;84.20
33825;DHT22;20127;48.962;8.342;2023-04-05T00:52:55;2.30;84.30
33825;DHT22;20127;48.962;8.342;2023-04-05T00:55:59;2.40;84.40
33825;DHT22;20127;48.962;8.342;2023-04-05T00:59:01;2.40;84.30
33825;DHT22;20127;48.962;8.342;2023-04-05T01:02:10;2.40;84.10
33825;DHT22;20127;48.962;8.342;2023-04-05T01:05:24;2.40;84.00
33825;DHT22;20127;48.962;8.342;2023-04-05T01:08:33;2.40;84.10
33825;DHT22;20127;48.962;8.342;2023-04-05T01:11:41;2.50;84.10
33825;DHT22;20127;48.962;8.342;2023-04-05T01:14:47;2.50;83.90
33825;DHT22;20127;48.962;8.342;2023-04-05T01:17:50;2.40;84.00
33825;DHT22;20127;48.962;8.342;2023-04-05T01:20:58;2.30;84.20
33825;DHT22;20127;48.962;8.342;2023-04-05T01:24:12;2.20;84.50
33825;DHT22;20127;48.962;8.342;2023-04-05T01:27:20;2.10;85.00
33825;DHT22;20127;48.962;8.342;2023-04-05T01:30:29;2.00;85.40
33825;DHT22;20127;48.962;8.342;2023-04-05T01:33:37;1.90;85.50
33825;DHT22;20127;48.962;8.342;2023-04-05T01:36:42;1.80;85.70
33825;DHT22;20127;48.962;8.342;2023-04-05T01:39:47;1.80;86.00
33825;DHT22;20127;48.962;8.342;2023-04-05T01:42:50;1.70;86.10
33825;DHT22;20127;48.962;8.342;2023-04-05T01:45:53;1.70;86.40
33825;DHT22;20127;48.962;8.342;2023-04-05T01:48:54;1.60;86.60
33825;DHT22;20127;48.962;8.342;2023-04-05T01:51:56;1.50;86.80
33825;DHT22;20127;48.962;8.342;2023-04-05T01:54:57;1.50;87.00
33825;DHT22;20127;48.962;8.342;2023-04-05T01:57:59;1.30;87.20
33825;DHT22;20127;48.962;8.342;2023-04-05T02:01:02;1.30;87.50
33825;DHT22;20127;48.962;8.342;2023-04-05T02:04:04;1.20;87.80
33825;DHT22;20127;48.962;8.342;2023-04-05T02:07:06;1.20;88.10
33825;DHT22;20127;48.962;8.342;2023-04-05T02:10:08;1.20;88.20
33825;DHT22;20127;48.962;8.342;2023-04-05T02:13:10;1.10;88.40
33825;DHT22;20127;48.962;8.342;2023-04-05T02:16:14;1.00;88.70
33825;DHT22;20127;48.962;8.342;2023-04-05T02:19:16;0.90;88.80
33825;DHT22;20127;48.962;8.342;2023-04-05T02:22:22;0.80;89.00
33825;DHT22;20127;48.962;8.342;2023-04-05T02:25:24;0.80;89.50
33825;DHT22;20127;48.962;8.342;2023-04-05T02:28:26;0.80;89.70
33825;DHT22;20127;48.962;8.342;2023-04-05T02:31:29;0.70;89.80
33825;DHT22;20127;48.962;8.342;2023-04-05T02:34:30;0.70;90.00
33825;DHT22;20127;48.962;8.342;2023-04-05T02:37:33;0.60;90.10
33825;DHT22;20127;48.962;8.342;2023-04-05T02:40:34;0.50;90.30
33825;DHT22;20127;48.962;8.342;2023-04-05T02:43:37;0.50;90.40
33825;DHT22;20127;48.962;8.342;2023-04-05T02:46:40;0.40;90.50
33825;DHT22;20127;48.962;8.342;2023-04-05T02:49:41;0.40;90.60
33825;DHT22;20127;48.962;8.342;2023-04-05T02:52:43;0.40;90.70
33825;DHT22;20127;48.962;8.342;2023-04-05T02:55:50;0.40;90.80
33825;DHT22;20127;48.962;8.342;2023-04-05T02:58:52;0.30;91.00
33825;DHT22;20127;48.962;8.342;2023-04-05T03:01:55;0.30;91.10
33825;DHT22;20127;48.962;8.342;2023-04-05T03:04:57;0.20;91.10
33825;DHT22;20127;48.962;8.342;2023-04-05T03:08:01;0.10;91.30
33825;DHT22;20127;48.962;8.342;2023-04-05T03:11:04;0.00;91.40
33825;DHT22;20127;48.962;8.342;2023-04-05T03:14:05;0.00;91.90
33825;DHT22;20127;48.962;8.342;2023-04-05T03:17:08;0.00;91.70
33825;DHT22;20127;48.962;8.342;2023-04-05T03:20:11;0.00;91.90
33825;DHT22;20127;48.962;8.342;2023-04-05T03:23:13;0.00;91.90
33825;DHT22;20127;48.962;8.342;2023-04-05T03:26:15;-0.10;92.00
33825;DHT22;20127;48.962;8.342;2023-04-05T03:29:16;-0.10;92.00
33825;DHT22;20127;48.962;8.342;2023-04-05T03:32:19;-0.10;92.20
33825;DHT22;20127;48.962;8.342;2023-04-05T03:35:21;-0.10;92.30
33825;DHT22;20127;48.962;8.342;2023-04-05T03:38:23;-0.10;92.40
33825;DHT22;20127;48.962;8.342;2023-04-05T03:41:24;-0.10;92.60
33825;DHT22;20127;48.962;8.342;2023-04-05T03:44:26;-0.10;92.70
33825;DHT22;20127;48.962;8.342;2023-04-05T03:47:29;-0.10;92.70
33825;DHT22;20127;48.962;8.342;2023-04-05T03:50:31;-0.20;92.70
33825;DHT22;20127;48.962;8.342;2023-04-05T03:53:33;-0.20;92.80
33825;DHT22;20127;48.962;8.342;2023-04-05T03:56:34;-0.30;92.90
33825;DHT22;20127;48.962;8.342;2023-04-05T03:59:36;-0.40;93.00
33825;DHT22;20127;48.962;8.342;2023-04-05T04:02:40;-0.40;93.10
33825;DHT22;20127;48.962;8.342;2023-04-05T04:05:42;-0.50;93.30
33825;DHT22;20127;48.962;8.342;2023-04-05T04:08:44;-0.50;93.40
33825;DHT22;20127;48.962;8.342;2023-04-05T04:11:45;-0.50;93.50
33825;DHT22;20127;48.962;8.342;2023-04-05T04:14:47;-0.70;93.50
33825;DHT22;20127;48.962;8.342;2023-04-05T04:17:50;-0.70;93.70
33825;DHT22;20127;48.962;8.342;2023-04-05T04:20:52;-0.80;93.80
33825;DHT22;20127;48.962;8.342;2023-04-05T04:23:54;-0.80;94.20
33825;DHT22;20127;48.962;8.342;2023-04-05T04:26:57;-0.70;94.10
33825;DHT22;20127;48.962;8.342;2023-04-05T04:29:58;-0.80;94.10
33825;DHT22;20127;48.962;8.342;2023-04-05T04:33:04;-0.80;94.30
33825;DHT22;20127;48.962;8.342;2023-04-05T04:36:08;-0.80;94.40
33825;DHT22;20127;48.962;8.342;2023-04-05T04:39:13;-0.80;94.50
33825;DHT22;20127;48.962;8.342;2023-04-05T04:42:15;-0.90;94.60
33825;DHT22;20127;48.962;8.342;2023-04-05T04:45:19;-0.90;94.80
33825;DHT22;20127;48.962;8.342;2023-04-05T04:48:22;-0.90;94.90
33825;DHT22;20127;48.962;8.342;2023-04-05T04:51:24;-0.90;95.00
33825;DHT22;20127;48.962;8.342;2023-04-05T04:54:26;-0.90;95.20
33825;DHT22;20127;48.962;8.342;2023-04-05T04:57:28;-0.90;95.20
33825;DHT22;20127;48.962;8.342;2023-04-05T05:00:30;-0.80;95.30
33825;DHT22;20127;48.962;8.342;2023-04-05T05:03:33;-0.80;95.50
33825;DHT22;20127;48.962;8.342;2023-04-05T05:06:35;-0.80;95.60
33825;DHT22;20127;48.962;8.342;2023-04-05T05:09:37;-0.80;95.70
33825;DHT22;20127;48.962;8.342;2023-04-05T05:12:39;-0.80;95.80
33825;DHT22;20127;48.962;8.342;2023-04-05T05:15:40;-0.80;95.90
33825;DHT22;20127;48.962;8.342;2023-04-05T05:18:43;-0.80;96.20
33825;DHT22;20127;48.962;8.342;2023-04-05T05:21:47;-0.80;96.30
33825;DHT22;20127;48.962;8.342;2023-04-05T05:24:49;-0.80;96.50
33825;DHT22;20127;48.962;8.342;2023-04-05T05:27:51;-0.80;96.60
33825;DHT22;20127;48.962;8.342;2023-04-05T05:30:53;-0.80;96.80
33825;DHT22;20127;48.962;8.342;2023-04-05T05:33:56;-0.70;97.00
33825;DHT22;20127;48.962;8.342;2023-04-05T05:36:58;-0.60;97.30
33825;DHT22;20127;48.962;8.342;2023-04-05T05:39:59;-0.50;97.50
33825;DHT22;20127;48.962;8.342;2023-04-05T05:43:01;-0.30;97.60
33825;DHT22;20127;48.962;8.342;2023-04-05T05:46:03;-0.20;97.80
33825;DHT22;20127;48.962;8.342;2023-04-05T05:49:06;0.00;98.00
33825;DHT22;20127;48.962;8.342;2023-04-05T05:52:08;0.30;98.20
33825;DHT22;20127;48.962;8.342;2023-04-05T05:55:10;0.50;98.40
33825;DHT22;20127;48.962;8.342;2023-04-05T05:58:11;0.80;98.40
33825;DHT22;20127;48.962;8.342;2023-04-05T06:01:13;1.00;98.50
33825;DHT22;20127;48.962;8.342;2023-04-05T06:04:16;1.10;98.50
33825;DHT22;20127;48.962;8.342;2023-04-05T06:07:18;1.30;98.50
33825;DHT22;20127;48.962;8.342;2023-04-05T06:10:20;1.50;98.60
33825;DHT22;20127;48.962;8.342;2023-04-05T06:13:23;1.70;98.60
33825;DHT22;20127;48.962;8.342;2023-04-05T06:16:25;2.00;98.60
33825;DHT22;20127;48.962;8.342;2023-04-05T06:19:29;2.20;98.60
33825;DHT22;20127;48.962;8.342;2023-04-05T06:22:31;2.50;98.60
33825;DHT22;20127;48.962;8.342;2023-04-05T06:25:33;2.70;98.20
33825;DHT22;20127;48.962;8.342;2023-04-05T06:28:35;3.00;97.80
33825;DHT22;20127;48.962;8.342;2023-04-05T06:31:36;3.20;97.70
33825;DHT22;20127;48.962;8.342;2023-04-05T06:34:39;3.40;97.20
33825;DHT22;20127;48.962;8.342;2023-04-05T06:37:41;3.50;96.80
33825;DHT22;20127;48.962;8.342;2023-04-05T06:40:43;3.60;96.50
33825;DHT22;20127;48.962;8.342;2023-04-05T06:43:44;3.90;96.40
33825;DHT22;20127;48.962;8.342;2023-04-05T06:46:46;4.10;96.10
33825;DHT22;20127;48.962;8.342;2023-04-05T06:49:49;4.20;95.60
33825;DHT22;20127;48.962;8.342;2023-04-05T06:52:51;4.40;95.40
33825;DHT22;20127;48.962;8.342;2023-04-05T06:55:53;4.50;95.20
33825;DHT22;20127;48.962;8.342;2023-04-05T06:58:55;4.70;95.10
33825;DHT22;20127;48.962;8.342;2023-04-05T07:01:58;4.90;95.20
33825;DHT22;20127;48.962;8.342;2023-04-05T07:05:02;5.20;94.60
33825;DHT22;20127;48.962;8.342;2023-04-05T07:08:05;5.30;94.30
33825;DHT22;20127;48.962;8.342;2023-04-05T07:11:06;5.50;93.80
33825;DHT22;20127;48.962;8.342;2023-04-05T07:14:08;5.70;93.50
33825;DHT22;20127;48.962;8.342;2023-04-05T07:17:10;6.10;93.70
33825;DHT22;20127;48.962;8.342;2023-04-05T07:20:13;6.40;93.60
33825;DHT22;20127;48.962;8.342;2023-04-05T07:23:15;6.80;93.60
33825;DHT22;20127;48.962;8.342;2023-04-05T07:26:17;7.60;93.90
33825;DHT22;20127;48.962;8.342;2023-04-05T07:29:19;8.40;93.80
33825;DHT22;20127;48.962;8.342;2023-04-05T07:32:20;9.30;92.70
33825;DHT22;20127;48.962;8.342;2023-04-05T07:35:24;9.90;90.90
33825;DHT22;20127;48.962;8.342;2023-04-05T07:38:26;10.40;89.10
33825;DHT22;20127;48.962;8.342;2023-04-05T07:41:28;10.80;86.20
33825;DHT22;20127;48.962;8.342;2023-04-05T07:44:31;11.30;83.40
33825;DHT22;20127;48.962;8.342;2023-04-05T07:47:33;11.80;80.80
33825;DHT22;20127;48.962;8.342;2023-04-05T07:50:36;12.50;78.70
33825;DHT22;20127;48.962;8.342;2023-04-05T07:53:40;13.20;75.60
33825;DHT22;20127;48.962;8.342;2023-04-05T07:56:42;13.70;72.60
33825;DHT22;20127;48.962;8.342;2023-04-05T07:59:44;13.90;69.30
33825;DHT22;20127;48.962;8.342;2023-04-05T08:02:45;14.10;68.20
33825;DHT22;20127;48.962;8.342;2023-04-05T08:05:48;14.30;67.10
33825;DHT22;20127;48.962;8.342;2023-04-05T08:08:50;14.70;65.20
33825;DHT22;20127;48.962;8.342;2023-04-05T08:11:52;14.90;64.00
33825;DHT22;20127;48.962;8.342;2023-04-05T08:14:53;15.20;62.50
33825;DHT22;20127;48.962;8.342;2023-04-05T08:17:55;15.30;61.40
33825;DHT22;20127;48.962;8.342;2023-04-05T08:20:58;15.30;60.60
33825;DHT22;20127;48.962;8.342;2023-04-05T08:24:01;15.40;60.00
33825;DHT22;20127;48.962;8.342;2023-04-05T08:27:02;15.50;59.40
33825;DHT22;20127;48.962;8.342;2023-04-05T08:30:05;15.10;57.70
33825;DHT22;20127;48.962;8.342;2023-04-05T08:33:10;14.80;58.10
33825;DHT22;20127;48.962;8.342;2023-04-05T08:36:13;14.60;57.90
33825;DHT22;20127;48.962;8.342;2023-04-05T08:39:15;13.90;56.50
33825;DHT22;20127;48.962;8.342;2023-04-05T08:42:22;13.20;57.50
33825;DHT22;20127;48.962;8.342;2023-04-05T08:45:25;12.80;58.40
33825;DHT22;20127;48.962;8.342;2023-04-05T08:48:31;12.60;58.70
33825;DHT22;20127;48.962;8.342;2023-04-05T08:51:37;12.40;59.50
33825;DHT22;20127;48.962;8.342;2023-04-05T08:54:39;12.70;59.70
33825;DHT22;20127;48.962;8.342;2023-04-05T08:57:44;13.00;59.60
33825;DHT22;20127;48.962;8.342;2023-04-05T09:00:50;13.30;59.20
33825;DHT22;20127;48.962;8.342;2023-04-05T09:03:52;13.70;58.30
33825;DHT22;20127;48.962;8.342;2023-04-05T09:06:57;14.00;57.80
33825;DHT22;20127;48.962;8.342;2023-04-05T09:09:59;14.50;56.90
33825;DHT22;20127;48.962;8.342;2023-04-05T09:13:02;15.10;55.90
33825;DHT22;20127;48.962;8.342;2023-04-05T09:16:04;15.50;55.00
33825;DHT22;20127;48.962;8.342;2023-04-05T09:19:11;16.00;53.90
33825;DHT22;20127;48.962;8.342;2023-04-05T09:22:15;16.30;53.10
33825;DHT22;20127;48.962;8.342;2023-04-05T09:25:33;16.30;52.00
33825;DHT22;20127;48.962;8.342;2023-04-05T09:28:41;16.30;50.70
33825;DHT22;20127;48.962;8.342;2023-04-05T09:31:43;16.10;50.30
33825;DHT22;20127;48.962;8.342;2023-04-05T09:34:45;16.20;51.20
33825;DHT22;20127;48.962;8.342;2023-04-05T09:37:52;16.50;51.00
33825;DHT22;20127;48.962;8.342;2023-04-05T09:40:54;16.70;49.00
33825;DHT22;20127;48.962;8.342;2023-04-05T09:43:55;16.50;48.90
33825;DHT22;20127;48.962;8.342;2023-04-05T09:47:14;16.40;48.80
33825;DHT22;20127;48.962;8.342;2023-04-05T09:50:18;16.20;47.90
33825;DHT22;20127;48.962;8.342;2023-04-05T09:53:21;15.60;47.70
33825;DHT22;20127;48.962;8.342;2023-04-05T09:56:23;15.30;48.30
33825;DHT22;20127;48.962;8.342;2023-04-05T09:59:24;15.20;48.40
33825;DHT22;20127;48.962;8.342;2023-04-05T10:02:34;15.10;48.10
33825;DHT22;20127;48.962;8.342;2023-04-05T10:05:37;15.10;47.50
33825;DHT22;20127;48.962;8.342;2023-04-05T10:08:40;15.00;47.20
33825;DHT22;20127;48.962;8.342;2023-04-05T10:11:43;14.90;47.20
33825;DHT22;20127;48.962;8.342;2023-04-05T10:14:45;14.80;46.60
33825;DHT22;20127;48.962;8.342;2023-04-05T10:17:48;14.50;46.10
33825;DHT22;20127;48.962;8.342;2023-04-05T10:20:53;14.40;46.50
33825;DHT22;20127;48.962;8.342;2023-04-05T10:24:17;14.50;47.10
33825;DHT22;20127;48.962;8.342;2023-04-05T10:27:24;14.60;47.20
33825;DHT22;20127;48.962;8.342;2023-04-05T10:30:33;14.90;46.60
33825;DHT22;20127;48.962;8.342;2023-04-05T10:33:39;15.10;46.50
33825;DHT22;20127;48.962;8.342;2023-04-05T10:36:45;15.60;46.50
33825;DHT22;20127;48.962;8.342;2023-04-05T10:39:51;16.00;46.10
33825;DHT22;20127;48.962;8.342;2023-04-05T10:42:54;16.20;45.70
33825;DHT22;20127;48.962;8.342;2023-04-05T10:45:56;16.10;45.10
33825;DHT22;20127;48.962;8.342;2023-04-05T10:49:06;15.70;44.80
33825;DHT22;20127;48.962;8.342;2023-04-05T10:52:12;15.10;44.80
33825;DHT22;20127;48.962;8.342;2023-04-05T10:55:16;14.90;46.10
33825;DHT22;20127;48.962;8.342;2023-04-05T10:58:18;15.20;46.40
33825;DHT22;20127;48.962;8.342;2023-04-05T11:01:20;15.50;46.20
33825;DHT22;20127;48.962;8.342;2023-04-05T11:04:22;15.90;46.20
33825;DHT22;20127;48.962;8.342;2023-04-05T11:07:24;16.30;46.30
33825;DHT22;20127;48.962;8.342;2023-04-05T11:10:28;16.60;45.70
33825;DHT22;20127;48.962;8.342;2023-04-05T11:13:47;16.70;45.70
33825;DHT22;20127;48.962;8.342;2023-04-05T11:16:51;16.60;44.70
33825;DHT22;20127;48.962;8.342;2023-04-05T11:20:01;16.50;45.30
33825;DHT22;20127;48.962;8.342;2023-04-05T11:23:03;16.90;45.10
33825;DHT22;20127;48.962;8.342;2023-04-05T11:26:06;17.40;44.70
33825;DHT22;20127;48.962;8.342;2023-04-05T11:29:09;17.50;44.40
33825;DHT22;20127;48.962;8.342;2023-04-05T11:32:11;17.70;44.50
33825;DHT22;20127;48.962;8.342;2023-04-05T11:35:14;17.90;44.40
33825;DHT22;20127;48.962;8.342;2023-04-05T11:38:21;18.00;43.60
33825;DHT22;20127;48.962;8.342;2023-04-05T11:41:24;18.20;43.60
33825;DHT22;20127;48.962;8.342;2023-04-05T11:44:41;18.50;43.50
33825;DHT22;20127;48.962;8.342;2023-04-05T11:47:43;18.80;42.30
33825;DHT22;20127;48.962;8.342;2023-04-05T11:50:46;18.30;41.60
33825;DHT22;20127;48.962;8.342;2023-04-05T11:53:51;17.80;41.50
33825;DHT22;20127;48.962;8.342;2023-04-05T11:56:54;17.30;41.70
33825;DHT22;20127;48.962;8.342;2023-04-05T11:59:56;17.10;41.40
33825;DHT22;20127;48.962;8.342;2023-04-05T12:02:57;17.00;41.60
33825;DHT22;20127;48.962;8.342;2023-04-05T12:06:00;17.00;41.70
33825;DHT22;20127;48.962;8.342;2023-04-05T12:09:06;17.40;41.80
33825;DHT22;20127;48.962;8.342;2023-04-05T12:12:16;17.70;42.00
33825;DHT22;20127;48.962;8.342;2023-04-05T12:15:18;18.20;41.80
33825;DHT22;20127;48.962;8.342;2023-04-05T12:18:20;18.50;41.40
33825;DHT22;20127;48.962;8.342;2023-04-05T12:21:22;18.50;40.90
33825;DHT22;20127;48.962;8.342;2023-04-05T12:24:24;18.40;40.90
33825;DHT22;20127;48.962;8.342;2023-04-05T12:27:27;18.50;40.90
33825;DHT22;20127;48.962;8.342;2023-04-05T12:30:29;18.60;40.90
33825;DHT22;20127;48.962;8.342;2023-04-05T12:33:40;18.80;40.30
33825;DHT22;20127;48.962;8.342;2023-04-05T12:36:44;18.30;39.20
33825;DHT22;20127;48.962;8.342;2023-04-05T12:39:48;17.90;40.30
33825;DHT22;20127;48.962;8.342;2023-04-05T12:42:51;18.20;40.10
33825;DHT22;20127;48.962;8.342;2023-04-05T12:45:53;18.10;39.60
33825;DHT22;20127;48.962;8.342;2023-04-05T12:48:58;18.20;40.50
33825;DHT22;20127;48.962;8.342;2023-04-05T12:52:00;18.40;39.50
33825;DHT22;20127;48.962;8.342;2023-04-05T12:55:03;18.50;39.70
33825;DHT22;20127;48.962;8.342;2023-04-05T12:58:06;18.70;39.40
33825;DHT22;20127;48.962;8.342;2023-04-05T13:01:10;18.80;39.10
33825;DHT22;20127;48.962;8.342;2023-04-05T13:04:12;19.00;39.10
33825;DHT22;20127;48.962;8.342;2023-04-05T13:07:14;19.30;39.40
33825;DHT22;20127;48.962;8.342;2023-04-05T13:10:16;19.30;39.20
33825;DHT22;20127;48.962;8.342;2023-04-05T13:13:19;19.30;38.90
33825;DHT22;20127;48.962;8.342;2023-04-05T13:16:21;19.40;38.80
33825;DHT22;20127;48.962;8.342;2023-04-05T13:19:23;19.50;38.50
33825;DHT22;20127;48.962;8.342;2023-04-05T13:22:24;19.50;38.40
33825;DHT22;20127;48.962;8.342;2023-04-05T13:25:26;19.40;38.20
33825;DHT22;20127;48.962;8.342;2023-04-05T13:28:29;19.40;37.80
33825;DHT22;20127;48.962;8.342;2023-04-05T13:31:31;19.30;37.70
33825;DHT22;20127;48.962;8.342;2023-04-05T13:34:33;19.40;37.90
33825;DHT22;20127;48.962;8.342;2023-04-05T13:37:35;19.50;37.60
33825;DHT22;20127;48.962;8.342;2023-04-05T13:40:37;19.70;37.30
33825;DHT22;20127;48.962;8.342;2023-04-05T13:43:40;19.80;37.00
33825;DHT22;20127;48.962;8.342;2023-04-05T13:46:42;19.90;37.00
33825;DHT22;20127;48.962;8.342;2023-04-05T13:49:44;20.00;36.70
33825;DHT22;20127;48.962;8.342;2023-04-05T13:52:45;20.00;36.50
33825;DHT22;20127;48.962;8.342;2023-04-05T13:55:47;20.00;36.20
33825;DHT22;20127;48.962;8.342;2023-04-05T13:58:50;20.00;36.00
33825;DHT22;20127;48.962;8.342;2023-04-05T14:01:52;20.00;35.60
33825;DHT22;20127;48.962;8.342;2023-04-05T14:04:54;20.10;35.30
33825;DHT22;20127;48.962;8.342;2023-04-05T14:07:55;20.00;35.00
33825;DHT22;20127;48.962;8.342;2023-04-05T14:10:57;20.20;34.90
33825;DHT22;20127;48.962;8.342;2023-04-05T14:14:00;20.20;34.80
33825;DHT22;20127;48.962;8.342;2023-04-05T14:17:02;20.00;34.70
33825;DHT22;20127;48.962;8.342;2023-04-05T14:20:05;20.10;34.50
33825;DHT22;20127;48.962;8.342;2023-04-05T14:23:07;20.00;34.50
33825;DHT22;20127;48.962;8.342;2023-04-05T14:26:09;20.10;34.50
33825;DHT22;20127;48.962;8.342;2023-04-05T14:29:12;20.20;34.50
33825;DHT22;20127;48.962;8.342;2023-04-05T14:32:15;20.30;34.30
33825;DHT22;20127;48.962;8.342;2023-04-05T14:35:17;20.20;34.20
33825;DHT22;20127;48.962;8.342;2023-04-05T14:38:18;20.20;34.10
33825;DHT22;20127;48.962;8.342;2023-04-05T14:41:20;20.40;33.40
33825;DHT22;20127;48.962;8.342;2023-04-05T14:44:23;20.50;32.80
33825;DHT22;20127;48.962;8.342;2023-04-05T14:47:27;20.50;32.80
33825;DHT22;20127;48.962;8.342;2023-04-05T14:50:29;20.50;32.70
33825;DHT22;20127;48.962;8.342;2023-04-05T14:53:32;20.70;32.40
33825;DHT22;20127;48.962;8.342;2023-04-05T14:56:33;20.40;31.70
33825;DHT22;20127;48.962;8.342;2023-04-05T14:59:37;19.90;31.90
33825;DHT22;20127;48.962;8.342;2023-04-05T15:02:38;20.00;31.90
33825;DHT22;20127;48.962;8.342;2023-04-05T15:05:41;20.10;32.00
33825;DHT22;20127;48.962;8.342;2023-04-05T15:08:43;20.20;32.10
33825;DHT22;20127;48.962;8.342;2023-04-05T15:11:45;19.90;32.00
33825;DHT22;20127;48.962;8.342;2023-04-05T15:14:48;19.40;32.50
33825;DHT22;20127;48.962;8.342;2023-04-05T15:17:50;18.80;32.80
33825;DHT22;20127;48.962;8.342;2023-04-05T15:20:52;18.30;32.90
33825;DHT22;20127;48.962;8.342;2023-04-05T15:23:54;17.70;33.40
33825;DHT22;20127;48.962;8.342;2023-04-05T15:26:55;17.30;34.10
33825;DHT22;20127;48.962;8.342;2023-04-05T15:30:03;16.90;34.30
33825;DHT22;20127;48.962;8.342;2023-04-05T15:33:05;16.40;34.70
33825;DHT22;20127;48.962;8.342;2023-04-05T15:36:07;16.10;35.20
33825;DHT22;20127;48.962;8.342;2023-04-05T15:39:09;15.80;35.50
33825;DHT22;20127;48.962;8.342;2023-04-05T15:45:52;15.30;36.10
33825;DHT22;20127;48.962;8.342;2023-04-05T15:48:54;15.10;36.90
33825;DHT22;20127;48.962;8.342;2023-04-05T15:51:56;14.90;37.90
33825;DHT22;20127;48.962;8.342;2023-04-05T15:54:59;14.80;39.20
33825;DHT22;20127;48.962;8.342;2023-04-05T15:58:01;14.70;39.30
33825;DHT22;20127;48.962;8.342;2023-04-05T16:01:04;14.60;39.10
33825;DHT22;20127;48.962;8.342;2023-04-05T16:04:06;14.40;39.00
33825;DHT22;20127;48.962;8.342;2023-04-05T16:07:08;14.30;39.20
33825;DHT22;20127;48.962;8.342;2023-04-05T16:10:10;14.20;38.80
33825;DHT22;20127;48.962;8.342;2023-04-05T16:13:12;13.90;38.60
33825;DHT22;20127;48.962;8.342;2023-04-05T16:16:15;13.60;38.70
33825;DHT22;20127;48.962;8.342;2023-04-05T16:19:17;13.40;39.20
33825;DHT22;20127;48.962;8.342;2023-04-05T16:22:19;13.20;39.20
33825;DHT22;20127;48.962;8.342;2023-04-05T16:25:21;13.00;39.30
33825;DHT22;20127;48.962;8.342;2023-04-05T16:28:23;12.90;39.70
33825;DHT22;20127;48.962;8.342;2023-04-05T16:31:28;12.70;40.00
33825;DHT22;20127;48.962;8.342;2023-04-05T16:34:35;12.60;40.20
33825;DHT22;20127;48.962;8.342;2023-04-05T16:37:36;12.60;40.40
33825;DHT22;20127;48.962;8.342;2023-04-05T16:40:38;12.50;40.50
33825;DHT22;20127;48.962;8.342;2023-04-05T16:43:40;12.40;40.70
33825;DHT22;20127;48.962;8.342;2023-04-05T16:46:43;12.30;41.00
33825;DHT22;20127;48.962;8.342;2023-04-05T16:49:46;12.50;41.70
33825;DHT22;20127;48.962;8.342;2023-04-05T16:52:48;12.50;42.00
33825;DHT22;20127;48.962;8.342;2023-04-05T16:55:50;12.50;42.50
33825;DHT22;20127;48.962;8.342;2023-04-05T16:58:52;12.50;42.90
33825;DHT22;20127;48.962;8.342;2023-04-05T17:01:57;12.60;43.50
33825;DHT22;20127;48.962;8.342;2023-04-05T17:04:59;12.60;42.80
33825;DHT22;20127;48.962;8.342;2023-04-05T17:08:01;12.50;42.60
33825;DHT22;20127;48.962;8.342;2023-04-05T17:11:14;12.50;42.70
33825;DHT22;20127;48.962;8.342;2023-04-05T17:14:19;12.40;43.60
33825;DHT22;20127;48.962;8.342;2023-04-05T17:17:29;12.40;43.80
33825;DHT22;20127;48.962;8.342;2023-04-05T17:20:31;12.30;43.60
33825;DHT22;20127;48.962;8.342;2023-04-05T17:23:33;12.00;43.10
33825;DHT22;20127;48.962;8.342;2023-04-05T17:26:36;11.80;43.10
33825;DHT22;20127;48.962;8.342;2023-04-05T17:29:41;11.60;43.10
33825;DHT22;20127;48.962;8.342;2023-04-05T17:32:44;11.40;43.00
33825;DHT22;20127;48.962;8.342;2023-04-05T17:35:46;11.20;42.80
33825;DHT22;20127;48.962;8.342;2023-04-05T17:38:48;11.00;42.70
33825;DHT22;20127;48.962;8.342;2023-04-05T17:41:51;10.80;42.60
33825;DHT22;20127;48.962;8.342;2023-04-05T17:44:56;10.70;42.70
33825;DHT22;20127;48.962;8.342;2023-04-05T17:47:59;10.60;42.70
33825;DHT22;20127;48.962;8.342;2023-04-05T17:51:06;10.40;42.90
33825;DHT22;20127;48.962;8.342;2023-04-05T17:54:26;10.30;43.00
33825;DHT22;20127;48.962;8.342;2023-04-05T17:57:28;10.10;43.00
33825;DHT22;20127;48.962;8.342;2023-04-05T18:00:31;10.00;43.60
33825;DHT22;20127;48.962;8.342;2023-04-05T18:03:35;9.80;44.20
33825;DHT22;20127;48.962;8.342;2023-04-05T18:06:37;9.70;44.50
33825;DHT22;20127;48.962;8.342;2023-04-05T18:09:43;9.50;45.20
33825;DHT22;20127;48.962;8.342;2023-04-05T18:12:50;9.30;45.90
33825;DHT22;20127;48.962;8.342;2023-04-05T18:15:57;9.10;47.10
33825;DHT22;20127;48.962;8.342;2023-04-05T18:19:16;8.90;47.90
33825;DHT22;20127;48.962;8.342;2023-04-05T18:22:25;8.70;49.00
33825;DHT22;20127;48.962;8.342;2023-04-05T18:25:28;8.50;49.80
33825;DHT22;20127;48.962;8.342;2023-04-05T18:28:33;8.30;49.70
33825;DHT22;20127;48.962;8.342;2023-04-05T18:31:35;8.10;50.30
33825;DHT22;20127;48.962;8.342;2023-04-05T18:34:42;7.90;50.80
33825;DHT22;20127;48.962;8.342;2023-04-05T18:37:49;7.80;51.50
33825;DHT22;20127;48.962;8.342;2023-04-05T18:40:59;7.60;51.90
33825;DHT22;20127;48.962;8.342;2023-04-05T18:44:04;7.50;53.30
33825;DHT22;20127;48.962;8.342;2023-04-05T18:47:07;7.30;52.90
33825;DHT22;20127;48.962;8.342;2023-04-05T18:50:10;7.30;53.50
33825;DHT22;20127;48.962;8.342;2023-04-05T18:53:13;7.10;54.00
33825;DHT22;20127;48.962;8.342;2023-04-05T18:56:15;6.90;54.20
33825;DHT22;20127;48.962;8.342;2023-04-05T18:59:17;6.80;54.60
33825;DHT22;20127;48.962;8.342;2023-04-05T19:02:19;6.70;55.00
33825;DHT22;20127;48.962;8.342;2023-04-05T19:05:37;6.60;55.30
33825;DHT22;20127;48.962;8.342;2023-04-05T19:08:40;6.50;55.80
33825;DHT22;20127;48.962;8.342;2023-04-05T19:11:48;6.30;55.70
33825;DHT22;20127;48.962;8.342;2023-04-05T19:15:03;6.20;56.10
33825;DHT22;20127;48.962;8.342;2023-04-05T19:18:05;6.00;56.30
33825;DHT22;20127;48.962;8.342;2023-04-05T19:21:08;5.90;56.40
33825;DHT22;20127;48.962;8.342;2023-04-05T19:24:10;5.80;56.90
33825;DHT22;20127;48.962;8.342;2023-04-05T19:27:14;5.70;57.30